^^
Station Historical Data
Daily Summary for February 9, 2018 Units:  English    Metric   Both
« Previous Day
Next Day »
Daily Weekly Monthly Yearly Custom
  High: Low: Average:
Temperature: TemperatureC °F -9.0 °F -6.8 °F
Dew Point: DewpointC °F -10.2 °F -7.9 °F
Humidity: Humidity% 90% 92%
Wind Speed: WindSpeedKMHmph 0.0mph 0.6mph
Wind Gust: WindSpeedGustKMHmph - -
Wind- - ESE
Pressure: PressurehPa in 1020.9 in -
Precipitation: 0.0 in    
Historical Graphs
 
 
Tabular Data for February 9, 2018
Time Temperature Dew Point Pressure Wind Wind Speed Wind Gust Humidity Rainfall Rate (Hourly) solar Conditions
TemperatureC °F DewpointC °F PressurehPa in Calm     Humidity% HourlyPrecipMM in SoftwareType W/m2 Conditions
00:04 -7.9 °F -9.2 °F 1020.9 in Calm     91% 0.0 in WeatherDisplay:10.37 W/m2 RA
00:09 -8.1 °F -9.3 °F 1020.9 in Calm     91% 0.0 in WeatherDisplay:10.37 W/m2 RA
00:14 -8.3 °F -9.7 °F 1020.9 in Calm     90% 0.0 in WeatherDisplay:10.37 W/m2 FEW
00:19 -8.4 °F -9.7 °F 1020.9 in Calm     91% 0.0 in WeatherDisplay:10.37 W/m2 FEW
00:24 -8.6 °F -9.8 °F 1020.9 in Calm     91% 0.0 in WeatherDisplay:10.37 W/m2 FEW
00:29 -8.7 °F -9.9 °F 1020.9 in Calm     91% 0.0 in WeatherDisplay:10.37 W/m2 FEW
00:34 -8.8 °F -10.0 °F 1020.9 in Calm     91% 0.0 in WeatherDisplay:10.37 W/m2 FEW
00:39 -8.9 °F -10.1 °F 1020.9 in Calm     91% 0.0 in WeatherDisplay:10.37 W/m2 FEW
00:44 -8.9 °F -10.2 °F 1020.9 in Calm     91% 0.0 in WeatherDisplay:10.37 W/m2 FEW
00:49 -9.0 °F -10.2 °F 1020.9 in Calm     91% 0.0 in WeatherDisplay:10.37 W/m2 FEW
00:54 -9.0 °F -10.2 °F 1020.9 in Calm     91% 0.0 in WeatherDisplay:10.37 W/m2 FEW
00:59 -9.0 °F -10.2 °F 1021.2 in Calm     91% 0.0 in WeatherDisplay:10.37 W/m2 FEW
01:04 -8.9 °F -10.0 °F 1021.2 in Calm     92% 0.0 in WeatherDisplay:10.37 W/m2 FEW
01:09 -8.9 °F -9.9 °F 1020.9 in Calm     92% 0.0 in WeatherDisplay:10.37 W/m2 FEW
01:14 -8.8 °F -9.9 °F 1021.2 in Calm     92% 0.0 in WeatherDisplay:10.37 W/m2 FEW
01:19 -8.8 °F -9.8 °F 1021.2 in Calm     92% 0.0 in WeatherDisplay:10.37 W/m2 FEW
01:24 -8.7 °F -9.8 °F 1021.2 in Calm     92% 0.0 in WeatherDisplay:10.37 W/m2 FEW
01:29 -8.7 °F -9.7 °F 1021.2 in Calm     92% 0.0 in WeatherDisplay:10.37 W/m2 FEW
01:34 -8.6 °F -9.5 °F 1021.2 in Calm     93% 0.0 in WeatherDisplay:10.37 W/m2 FEW
01:39 -8.4 °F -9.4 °F 1021.2 in Calm     93% 0.0 in WeatherDisplay:10.37 W/m2 FEW
01:44 -8.4 °F -9.3 °F 1021.2 in Calm     93% 0.0 in WeatherDisplay:10.37 W/m2 FEW
01:49 -8.3 °F -9.4 °F 1021.2 in Calm     92% 0.0 in WeatherDisplay:10.37 W/m2 FEW
01:54 -8.3 °F -9.4 °F 1021.2 in Calm     92% 0.0 in WeatherDisplay:10.37 W/m2 FEW
01:59 -8.3 °F -9.4 °F 1021.2 in Calm     92% 0.0 in WeatherDisplay:10.37 W/m2 FEW
02:04 -8.3 °F -9.3 °F 1021.2 in Calm     92% 0.0 in WeatherDisplay:10.37 W/m2 FEW
02:09 -8.3 °F -9.3 °F 1021.2 in Calm     92% 0.0 in WeatherDisplay:10.37 W/m2 FEW
02:14 -8.3 °F -9.2 °F 1021.2 in Calm     93% 0.0 in WeatherDisplay:10.37 W/m2 FEW
02:19 -8.2 °F -9.1 °F 1021.2 in Calm     93% 0.0 in WeatherDisplay:10.37 W/m2 FEW
02:24 -8.2 °F -9.1 °F 1021.2 in Calm     93% 0.0 in WeatherDisplay:10.37 W/m2 FEW
02:29 -8.1 °F -9.0 °F 1021.2 in Calm     93% 0.0 in WeatherDisplay:10.37 W/m2 FEW
02:34 -7.9 °F -8.9 °F 1021.2 in Calm     93% 0.0 in WeatherDisplay:10.37 W/m2 FEW
02:39 -7.9 °F -8.8 °F 1021.2 in Calm     93% 0.0 in WeatherDisplay:10.37 W/m2 FEW
02:44 -7.8 °F -8.7 °F 1021.2 in Calm     93% 0.0 in WeatherDisplay:10.37 W/m2 FEW
02:49 -7.7 °F -8.7 °F 1021.2 in Calm     93% 0.0 in WeatherDisplay:10.37 W/m2 FEW
02:54 -7.6 °F -8.6 °F 1021.2 in Calm     93% 0.0 in WeatherDisplay:10.37 W/m2 FEW
02:59 -7.5 °F -8.4 °F 1021.2 in Calm     93% 0.0 in WeatherDisplay:10.37 W/m2 FEW
03:04 -7.4 °F -8.3 °F 1021.2 in Calm     93% 0.0 in WeatherDisplay:10.37 W/m2 FEW
03:09 -7.3 °F -8.3 °F 1021.2 in Calm     93% 0.0 in WeatherDisplay:10.37 W/m2 FEW
03:14 -7.2 °F -8.2 °F 1021.2 in Calm     93% 0.0 in WeatherDisplay:10.37 W/m2 FEW
03:19 -7.2 °F -8.1 °F 1021.2 in Calm     93% 0.0 in WeatherDisplay:10.37 W/m2 FEW
03:24 -7.1 °F -8.1 °F 1021.2 in Calm     93% 0.0 in WeatherDisplay:10.37 W/m2 FEW
03:29 -7.1 °F -8.0 °F 1021.2 in Calm     93% 0.0 in WeatherDisplay:10.37 W/m2 FEW
03:34 -7.0 °F -7.9 °F 1021.2 in Calm     93% 0.0 in WeatherDisplay:10.37 W/m2 FEW
03:39 -7.0 °F -7.9 °F 1021.2 in Calm     93% 0.0 in WeatherDisplay:10.37 W/m2 FEW
03:44 -6.9 °F -7.9 °F 1021.2 in Calm     93% 0.0 in WeatherDisplay:10.37 W/m2 FEW
03:49 -6.9 °F -7.8 °F 1021.2 in Calm     93% 0.0 in WeatherDisplay:10.37 W/m2 FEW
03:54 -6.8 °F -7.8 °F 1021.2 in Calm     93% 0.0 in WeatherDisplay:10.37 W/m2 FEW
03:59 -6.8 °F -7.7 °F 1021.2 in Calm     93% 0.0 in WeatherDisplay:10.37 W/m2 FEW
04:04 -6.8 °F -7.7 °F 1021.2 in Calm     93% 0.0 in WeatherDisplay:10.37 W/m2 FEW
04:09 -6.7 °F -7.7 °F 1021.2 in Calm     93% 0.0 in WeatherDisplay:10.37 W/m2 FEW
04:14 -6.8 °F -7.8 °F 1021.2 in South 0.3 mph 1.6 mph 92% 0.0 in WeatherDisplay:10.37 W/m2 FEW
04:19 -6.8 °F -7.7 °F 1021.2 in Calm     93% 0.0 in WeatherDisplay:10.37 W/m2 FEW
04:24 -6.8 °F -7.8 °F 1021.2 in Calm     92% 0.0 in WeatherDisplay:10.37 W/m2 FEW
04:29 -6.8 °F -7.9 °F 1021.2 in Calm     92% 0.0 in WeatherDisplay:10.37 W/m2 FEW
04:34 -6.8 °F -7.9 °F 1021.2 in Calm   1.9 mph 92% 0.0 in WeatherDisplay:10.37 W/m2 FEW
04:39 -6.9 °F -7.9 °F 1021.2 in SSE 0.2 mph 1.9 mph 92% 0.0 in WeatherDisplay:10.37 W/m2 FEW
04:44 -6.9 °F -7.9 °F 1021.2 in Calm     92% 0.0 in WeatherDisplay:10.37 W/m2 FEW
04:49 -6.9 °F -8.0 °F 1021.2 in Calm     92% 0.0 in WeatherDisplay:10.37 W/m2 FEW
04:54 -6.9 °F -8.0 °F 1021.2 in Calm     92% 0.0 in WeatherDisplay:10.37 W/m2 FEW
04:59 -6.9 °F -8.0 °F 1021.2 in Calm     92% 0.0 in WeatherDisplay:10.37 W/m2 FEW
05:04 -6.9 °F -7.9 °F 1021.2 in Calm     92% 0.0 in WeatherDisplay:10.37 W/m2 FEW
05:09 -6.9 °F -7.9 °F 1021.6 in Calm     92% 0.0 in WeatherDisplay:10.37 W/m2 FEW
05:14 -6.9 °F -7.9 °F 1021.6 in Calm     92% 0.0 in WeatherDisplay:10.37 W/m2 FEW
05:19 -6.9 °F -7.9 °F 1021.6 in ESE 2.9 mph 5.6 mph 92% 0.0 in WeatherDisplay:10.37 W/m2 FEW
05:24 -6.9 °F -7.9 °F 1021.2 in ENE 3.1 mph 5.6 mph 92% 0.0 in WeatherDisplay:10.37 W/m2 FEW
05:29 -6.9 °F -8.0 °F 1021.2 in SE 0.5 mph 5.6 mph 92% 0.0 in WeatherDisplay:10.37 W/m2 FEW
05:34 -6.9 °F -8.0 °F 1021.2 in Calm     92% 0.0 in WeatherDisplay:10.37 W/m2 FEW
05:39 -7.0 °F -8.1 °F 1021.2 in East 2.9 mph 7.4 mph 92% 0.0 in WeatherDisplay:10.37 W/m2 FEW
05:44 -7.0 °F -8.1 °F 1021.2 in Calm     92% 0.0 in WeatherDisplay:10.37 W/m2 FEW
05:49 -7.1 °F -8.1 °F 1021.2 in ESE 2.1 mph 5.6 mph 92% 0.0 in WeatherDisplay:10.37 W/m2 FEW
05:54 -7.1 °F -8.2 °F 1020.9 in SE 3.1 mph 5.6 mph 92% 0.0 in WeatherDisplay:10.37 W/m2 FEW
05:59 -7.2 °F -8.2 °F 1020.9 in Calm     92% 0.0 in WeatherDisplay:10.37 W/m2 FEW
06:04 -7.2 °F -8.3 °F 1020.9 in ESE 3.4 mph 5.6 mph 92% 0.0 in WeatherDisplay:10.37 W/m2 FEW
06:09 -7.2 °F -8.3 °F 1021.2 in East 2.1 mph 3.7 mph 92% 0.0 in WeatherDisplay:10.37 W/m2 FEW
06:14 -7.2 °F -8.3 °F 1021.2 in ESE 0.3 mph 5.6 mph 92% 0.0 in WeatherDisplay:10.37 W/m2 FEW
06:19 -7.2 °F -8.3 °F 1021.2 in SE 1.9 mph 5.6 mph 92% 0.0 in WeatherDisplay:10.37 W/m2 FEW
06:24 -7.3 °F -8.3 °F 1021.2 in SE 2.4 mph 5.6 mph 92% 0.0 in WeatherDisplay:10.37 W/m2 FEW
06:29 -7.3 °F -8.3 °F 1021.2 in Calm     92% 0.0 in WeatherDisplay:10.37 W/m2 FEW
06:34 -7.3 °F -8.3 °F 1021.2 in Calm     92% 0.0 in WeatherDisplay:10.37 W/m2 FEW
06:39 -7.3 °F -8.3 °F 1021.2 in ESE 0.6 mph 3.7 mph 92% 0.0 in WeatherDisplay:10.37 W/m2 FEW
06:44 -7.3 °F -8.3 °F 1021.2 in ESE 2.9 mph 5.6 mph 92% 0.0 in WeatherDisplay:10.37 W/m2 FEW
06:49 -7.3 °F -8.3 °F 1021.2 in ENE 1.0 mph 3.7 mph 92% 0.0 in WeatherDisplay:10.37 W/m2 FEW
06:54 -7.3 °F -8.3 °F 1021.2 in ESE 1.1 mph 1.6 mph 93% 0.0 in WeatherDisplay:10.37 W/m2 FEW
06:59 -7.3 °F -8.3 °F 1021.6 in Calm     93% 0.0 in WeatherDisplay:10.37 W/m2 FEW
07:04 -7.3 °F -8.3 °F 1021.6 in Calm     93% 0.0 in WeatherDisplay:10.37 W/m2 FEW
07:09 -7.3 °F -8.2 °F 1021.6 in Calm     93% 0.0 in WeatherDisplay:10.37 W/m2 FEW
07:14 -7.3 °F -8.3 °F 1021.6 in Calm     93% 0.0 in WeatherDisplay:10.37 W/m2 FEW
07:19 -7.3 °F -8.2 °F 1021.6 in Calm   1.9 mph 93% 0.0 in WeatherDisplay:10.37 W/m2 FEW
07:24 -7.3 °F -8.2 °F 1021.6 in ESE 0.2 mph 1.9 mph 93% 0.0 in WeatherDisplay:10.37 W/m2 FEW
07:29 -7.3 °F -8.2 °F 1021.6 in ESE 0.2 mph 5.6 mph 93% 0.0 in WeatherDisplay:10.37 W/m2 FEW
07:34 -7.3 °F -8.2 °F 1021.6 in ESE 1.0 mph 5.6 mph 93% 0.0 in WeatherDisplay:10.37 W/m2 FEW
07:39 -7.3 °F -8.2 °F 1021.6 in ESE 0.6 mph 3.7 mph 93% 0.0 in WeatherDisplay:10.37 W/m2 FEW
07:44 -7.3 °F -8.2 °F 1021.6 in ESE 1.4 mph 7.4 mph 93% 0.0 in WeatherDisplay:10.37 W/m2 FEW
07:49 -7.3 °F -8.2 °F 1021.6 in ESE 1.6 mph 5.6 mph 93% 0.0 in WeatherDisplay:10.37 W/m2 FEW
07:54 -7.3 °F -8.2 °F 1021.6 in Calm   3.7 mph 93% 0.0 in WeatherDisplay:10.37 W/m2 FEW
07:59 -7.2 °F -8.2 °F 1021.6 in Calm     93% 0.0 in WeatherDisplay:10.37 W/m2 FEW
08:04 -7.2 °F -8.2 °F 1021.6 in ESE 1.3 mph 3.7 mph 93% 0.0 in WeatherDisplay:10.37 W/m2 FEW
08:09 -7.2 °F -8.2 °F 1021.6 in ESE 0.8 mph 5.6 mph 93% 0.0 in WeatherDisplay:10.37 W/m2 FEW
08:14 -7.2 °F -8.2 °F 1021.6 in Calm     93% 0.0 in WeatherDisplay:10.37 W/m2 FEW
08:19 -7.2 °F -8.2 °F 1021.6 in Calm     93% 0.0 in WeatherDisplay:10.37 W/m2 FEW
08:24 -7.2 °F -8.2 °F 1021.6 in Calm     93% 0.0 in WeatherDisplay:10.37 W/m2 FEW
08:29 -7.2 °F -8.1 °F 1021.6 in SE 1.3 mph 5.6 mph 93% 0.0 in WeatherDisplay:10.37 W/m2 FEW
08:34 -7.2 °F -8.1 °F 1021.9 in Calm     93% 0.0 in WeatherDisplay:10.37 W/m2 FEW
08:39 -7.2 °F -8.1 °F 1021.9 in SE 1.1 mph   93% 0.0 in WeatherDisplay:10.37 W/m2 FEW
08:44 -7.2 °F -8.1 °F 1021.9 in SSE 2.1 mph 5.6 mph 93% 0.0 in WeatherDisplay:10.37 W/m2 FEW
08:49 -7.1 °F -8.1 °F 1021.9 in Calm     93% 0.0 in WeatherDisplay:10.37 W/m2 FEW
08:54 -7.1 °F -8.0 °F 1021.9 in Calm     93% 0.0 in WeatherDisplay:10.37 W/m2 FEW
08:59 -7.1 °F -8.0 °F 1021.9 in Calm     93% 0.0 in WeatherDisplay:10.37 W/m2 FEW
09:04 -7.0 °F -7.9 °F 1021.9 in SE 2.3 mph 5.6 mph 93% 0.0 in WeatherDisplay:10.37 W/m2 FEW
09:09 -7.0 °F -7.9 °F 1021.9 in SE 1.6 mph 3.7 mph 93% 0.0 in WeatherDisplay:10.37 W/m2 FEW
09:14 -7.1 °F -8.1 °F 1021.9 in Calm   3.7 mph 92% 0.0 in WeatherDisplay:10.37 W/m2 FEW
09:19 -7.1 °F -8.1 °F 1021.9 in SE 2.1 mph 5.6 mph 92% 0.0 in WeatherDisplay:10.37 W/m2 FEW
09:24 -7.1 °F -8.0 °F 1021.9 in Calm     93% 0.0 in WeatherDisplay:10.37 W/m2 FEW
09:29 -7.1 °F -8.1 °F 1021.9 in Calm     92% 0.0 in WeatherDisplay:10.37 W/m2 FEW
09:34 -7.1 °F -8.0 °F 1021.9 in SE 0.3 mph 4.8 mph 93% 0.0 in WeatherDisplay:10.37 W/m2 FEW
09:39 -7.1 °F -8.1 °F 1021.9 in Calm     93% 0.0 in WeatherDisplay:10.37 W/m2 FEW
09:44 -7.1 °F -8.1 °F 1022.2 in SE 1.0 mph 3.2 mph 92% 0.0 in WeatherDisplay:10.37 W/m2 FEW
09:49 -7.1 °F -8.0 °F 1022.2 in Calm     93% 0.0 in WeatherDisplay:10.37 W/m2 FEW
09:54 -7.0 °F -7.9 °F 1022.2 in SE 0.3 mph 3.7 mph 93% 0.0 in WeatherDisplay:10.37 W/m2 FEW
09:59 -7.0 °F -8.1 °F 1022.2 in Calm     92% 0.0 in WeatherDisplay:10.37 W/m2 FEW
10:04 -7.0 °F -7.9 °F 1022.2 in Calm     93% 0.0 in WeatherDisplay:10.37 W/m2 FEW
10:09 -6.9 °F -7.9 °F 1022.2 in Calm     93% 0.0 in WeatherDisplay:10.37 W/m2 FEW
10:14 -6.8 °F -7.8 °F 1022.2 in Calm     93% 0.0 in WeatherDisplay:10.37 W/m2 FEW
10:19 -6.8 °F -7.9 °F 1022.2 in ESE 2.3 mph 5.6 mph 92% 0.0 in WeatherDisplay:10.37 W/m2 FEW
10:24 -6.8 °F -7.8 °F 1022.2 in ESE 0.3 mph 5.6 mph 92% 0.0 in WeatherDisplay:10.37 W/m2 FEW
10:29 -6.7 °F -7.8 °F 1022.2 in ESE 1.3 mph 3.7 mph 92% 0.0 in WeatherDisplay:10.37 W/m2 FEW
10:34 -6.7 °F -7.8 °F 1022.2 in Calm     92% 0.0 in WeatherDisplay:10.37 W/m2 FEW
10:39 -6.7 °F -7.7 °F 1022.2 in Calm     92% 0.0 in WeatherDisplay:10.37 W/m2 FEW
10:45 -6.6 °F -7.7 °F 1022.2 in Calm     92% 0.0 in WeatherDisplay:10.37 W/m2 FEW
10:50 -6.5 °F -7.6 °F 1022.6 in ESE 1.3 mph 5.6 mph 92% 0.0 in WeatherDisplay:10.37 W/m2 FEW
10:55 -6.5 °F -7.6 °F 1022.6 in SE 1.3 mph 3.7 mph 92% 0.0 in WeatherDisplay:10.37 W/m2 FEW
11:00 -6.4 °F -7.6 °F 1022.6 in SE 0.5 mph 4.8 mph 92% 0.0 in WeatherDisplay:10.37 W/m2 FEW
11:05 -6.4 °F -7.6 °F 1022.6 in SE 0.6 mph 3.7 mph 92% 0.0 in WeatherDisplay:10.37 W/m2 FEW
11:11 -6.4 °F -7.6 °F 1022.6 in Calm     92% 0.0 in WeatherDisplay:10.37 W/m2 FEW
11:16 -6.4 °F -7.6 °F 1022.2 in ESE 1.9 mph 3.7 mph 92% 0.0 in WeatherDisplay:10.37 W/m2 FEW
11:21 -6.4 °F -7.7 °F 1022.6 in Calm     91% 0.0 in WeatherDisplay:10.37 W/m2 FEW
11:26 -6.4 °F -7.7 °F 1022.2 in SE 0.8 mph 6.4 mph 91% 0.0 in WeatherDisplay:10.37 W/m2 FEW
11:31 -6.4 °F -7.7 °F 1022.2 in SE 3.2 mph 5.6 mph 91% 0.0 in WeatherDisplay:10.37 W/m2 FEW
11:36 -6.4 °F -7.7 °F 1022.6 in SE 0.5 mph 7.4 mph 91% 0.0 in WeatherDisplay:10.37 W/m2 FEW
11:41 -6.4 °F -7.7 °F 1022.6 in Calm   3.2 mph 91% 0.0 in WeatherDisplay:10.37 W/m2 FEW
11:46 -6.4 °F -7.6 °F 1022.6 in ESE 3.4 mph 7.4 mph 91% 0.0 in WeatherDisplay:10.37 W/m2 FEW
11:51 -6.4 °F -7.6 °F 1022.6 in Calm     91% 0.0 in WeatherDisplay:10.37 W/m2 FEW
11:56 -6.3 °F -7.6 °F 1022.6 in ESE 0.8 mph 3.7 mph 91% 0.0 in WeatherDisplay:10.37 W/m2 FEW
12:01 -6.3 °F -7.6 °F 1022.6 in Calm   1.6 mph 91% 0.0 in WeatherDisplay:10.37 W/m2 FEW
12:06 -6.2 °F -7.4 °F 1022.6 in ESE 3.9 mph 5.6 mph 91% 0.0 in WeatherDisplay:10.37 W/m2 FEW
12:11 -6.2 °F -7.4 °F 1022.6 in Calm     91% 0.0 in WeatherDisplay:10.37 W/m2 FEW
12:16 -6.3 °F -7.5 °F 1022.6 in ESE 2.4 mph 9.3 mph 91% 0.0 in WeatherDisplay:10.37 W/m2 FEW
12:21 -6.3 °F -7.7 °F 1022.6 in Calm     90% 0.0 in WeatherDisplay:10.37 W/m2 FEW
12:26 -6.3 °F -7.5 °F 1022.6 in Calm     91% 0.0 in WeatherDisplay:10.37 W/m2 FEW
12:31 -6.2 °F -7.4 °F 1022.6 in Calm     91% 0.0 in WeatherDisplay:10.37 W/m2 FEW
12:36 -6.2 °F -7.4 °F 1022.6 in ESE 0.8 mph 5.6 mph 91% 0.0 in WeatherDisplay:10.37 W/m2 FEW
12:41 -6.2 °F -7.4 °F 1022.6 in SE 2.3 mph 7.4 mph 91% 0.0 in WeatherDisplay:10.37 W/m2 FEW
12:46 -6.2 °F -7.4 °F 1022.6 in Calm     91% 0.0 in WeatherDisplay:10.37 W/m2 FEW
12:51 -6.1 °F -7.3 °F 1022.6 in Calm   1.9 mph 91% 0.0 in WeatherDisplay:10.37 W/m2 FEW
12:56 -6.1 °F -7.4 °F 1022.6 in SE 1.0 mph 3.2 mph 90% 0.0 in WeatherDisplay:10.37 W/m2 FEW
13:01 -6.1 °F -7.4 °F 1022.9 in Calm     90% 0.0 in WeatherDisplay:10.37 W/m2 FEW
13:06 -6.0 °F -7.4 °F 1022.6 in Calm     90% 0.0 in WeatherDisplay:10.37 W/m2 FEW
13:11 -6.0 °F -7.4 °F 1022.6 in SE 1.3 mph 3.7 mph 90% 0.0 in WeatherDisplay:10.37 W/m2 FEW
13:16 -6.1 °F -7.4 °F 1022.6 in SE 2.4 mph 5.6 mph 90% 0.0 in WeatherDisplay:10.37 W/m2 FEW
13:21 -6.1 °F -7.4 °F 1022.6 in SE 3.1 mph 3.7 mph 90% 0.0 in WeatherDisplay:10.37 W/m2 FEW
13:26 -6.1 °F -7.4 °F 1022.6 in SE 1.1 mph 3.2 mph 90% 0.0 in WeatherDisplay:10.37 W/m2 FEW
13:31 -6.1 °F -7.4 °F 1022.6 in SE 3.2 mph 5.6 mph 90% 0.0 in WeatherDisplay:10.37 W/m2 FEW
13:36 -6.1 °F -7.5 °F 1022.6 in SE 0.6 mph 3.7 mph 90% 0.0 in WeatherDisplay:10.37 W/m2 FEW
13:41 -6.1 °F -7.5 °F 1022.9 in SE 1.1 mph 3.2 mph 90% 0.0 in WeatherDisplay:10.37 W/m2 FEW
13:46 -6.1 °F -7.4 °F 1022.9 in Calm   3.7 mph 90% 0.0 in WeatherDisplay:10.37 W/m2 FEW
13:51 -6.1 °F -7.4 °F 1022.6 in SE 1.6 mph 3.7 mph 90% 0.0 in WeatherDisplay:10.37 W/m2 FEW
13:56 -6.1 °F -7.4 °F 1022.6 in Calm     90% 0.0 in WeatherDisplay:10.37 W/m2 FEW
14:01 -6.1 °F -7.4 °F 1022.6 in SE 0.3 mph 5.6 mph 90% 0.0 in WeatherDisplay:10.37 W/m2 FEW
14:06 -6.0 °F -7.4 °F 1022.6 in Calm     90% 0.0 in WeatherDisplay:10.37 W/m2 FEW
14:11 -6.0 °F -7.4 °F 1022.6 in SE 0.5 mph 3.7 mph 90% 0.0 in WeatherDisplay:10.37 W/m2 FEW
14:16 -6.0 °F -7.4 °F 1022.6 in SE 1.0 mph 5.6 mph 90% 0.0 in WeatherDisplay:10.37 W/m2 FEW
14:21 -6.0 °F -7.4 °F 1022.6 in Calm   1.9 mph 90% 0.0 in WeatherDisplay:10.37 W/m2 FEW
14:26 -6.0 °F -7.4 °F 1022.6 in SE 2.1 mph 5.6 mph 90% 0.0 in WeatherDisplay:10.37 W/m2 FEW
14:31 -6.0 °F -7.4 °F 1022.6 in SE 1.4 mph 11.1 mph 90% 0.0 in WeatherDisplay:10.37 W/m2 FEW
14:36 -6.1 °F -7.5 °F 1022.6 in ESE 3.7 mph 5.6 mph 90% 0.0 in WeatherDisplay:10.37 W/m2 FEW
14:41 -6.2 °F -7.6 °F 1022.6 in Calm   3.7 mph 90% 0.0 in WeatherDisplay:10.37 W/m2 FEW
14:46 -6.2 °F -7.6 °F 1022.6 in SE 1.3 mph 5.6 mph 90% 0.0 in WeatherDisplay:10.37 W/m2 FEW
14:51 -6.2 °F -7.6 °F 1022.6 in SE 0.8 mph 5.6 mph 90% 0.0 in WeatherDisplay:10.37 W/m2 FEW
14:56 -6.1 °F -7.3 °F 1022.6 in SE 0.3 mph 5.6 mph 91% 0.0 in WeatherDisplay:10.37 W/m2 FEW
15:01 -6.1 °F -7.3 °F 1022.6 in SE 1.8 mph 3.7 mph 91% 0.0 in WeatherDisplay:10.37 W/m2 FEW
15:06 -6.1 °F -7.5 °F 1022.6 in Calm     90% 0.0 in WeatherDisplay:10.37 W/m2 FEW
15:11 -6.1 °F -7.5 °F 1022.6 in Calm   3.7 mph 90% 0.0 in WeatherDisplay:10.37 W/m2 FEW
15:16 -6.2 °F -7.6 °F 1022.6 in SE 1.3 mph 4.8 mph 90% 0.0 in WeatherDisplay:10.37 W/m2 FEW
15:21 -6.3 °F -7.7 °F 1022.6 in SE 3.4 mph 5.6 mph 90% 0.0 in WeatherDisplay:10.37 W/m2 FEW
15:26 -6.4 °F -7.8 °F 1022.6 in Calm     90% 0.0 in WeatherDisplay:10.37 W/m2 FEW
15:31 -6.4 °F -7.8 °F 1022.6 in SE 1.6 mph 5.6 mph 90% 0.0 in WeatherDisplay:10.37 W/m2 FEW
15:36 -6.5 °F -7.9 °F 1022.6 in SE 2.4 mph 6.4 mph 90% 0.0 in WeatherDisplay:10.37 W/m2 FEW
15:41 -6.6 °F -7.8 °F 1022.6 in SE 3.2 mph 5.6 mph 91% 0.0 in WeatherDisplay:10.37 W/m2 FEW
15:46 -6.6 °F -7.8 °F 1022.6 in Calm     91% 0.0 in WeatherDisplay:10.37 W/m2 FEW
15:51 -6.6 °F -7.8 °F 1022.6 in Calm     91% 0.0 in WeatherDisplay:10.37 W/m2 FEW
15:56 -6.6 °F -7.8 °F 1022.6 in Calm     91% 0.0 in WeatherDisplay:10.37 W/m2 FEW
15:59 -6.7 °F -7.9 °F 1022.6 in Calm     91% 0.0 in WeatherDisplay:10.37 W/m2 FEW
16:04 -6.7 °F -7.9 °F 1022.6 in SE 0.8 mph 4.8 mph 91% 0.0 in WeatherDisplay:10.37 W/m2 FEW
16:09 -6.7 °F -7.9 °F 1022.6 in SE 1.6 mph 5.6 mph 91% 0.0 in WeatherDisplay:10.37 W/m2 FEW
16:14 -6.8 °F -8.0 °F 1022.6 in Calm     91% 0.0 in WeatherDisplay:10.37 W/m2 FEW
16:19 -6.8 °F -8.0 °F 1022.9 in ESE 0.6 mph   91% 0.0 in WeatherDisplay:10.37 W/m2 FEW
16:24 -6.8 °F -8.1 °F 1022.9 in ESE 1.4 mph 5.6 mph 91% 0.0 in WeatherDisplay:10.37 W/m2 FEW
16:29 -6.8 °F -8.1 °F 1022.9 in SE 0.3 mph 5.6 mph 91% 0.0 in WeatherDisplay:10.37 W/m2 FEW
16:34 -6.8 °F -8.1 °F 1022.9 in ESE 4.2 mph 9.7 mph 91% 0.0 in WeatherDisplay:10.37 W/m2 FEW
16:39 -6.9 °F -8.1 °F 1022.9 in ESE 1.0 mph 3.7 mph 91% 0.0 in WeatherDisplay:10.37 W/m2 FEW
16:44 -6.9 °F -8.2 °F 1022.9 in ESE 1.0 mph 3.7 mph 91% 0.0 in WeatherDisplay:10.37 W/m2 FEW
16:49 -6.9 °F -8.2 °F 1022.9 in Calm     91% 0.0 in WeatherDisplay:10.37 W/m2 FEW
16:54 -6.9 °F -8.0 °F 1022.9 in ESE 0.8 mph 4.8 mph 92% 0.0 in WeatherDisplay:10.37 W/m2 FEW
16:59 -6.9 °F -8.0 °F 1022.9 in ESE 5.8 mph 13.0 mph 92% 0.0 in WeatherDisplay:10.37 W/m2 FEW
17:04 -7.0 °F -8.1 °F 1023.2 in SE 3.4 mph 4.8 mph 92% 0.0 in WeatherDisplay:10.37 W/m2 FEW
17:09 -7.1 °F -8.1 °F 1023.2 in Calm     92% 0.0 in WeatherDisplay:10.37 W/m2 FEW
17:14 -7.1 °F -8.1 °F 1023.2 in Calm     92% 0.0 in WeatherDisplay:10.37 W/m2 FEW
17:19 -7.1 °F -8.1 °F 1023.2 in Calm     92% 0.0 in WeatherDisplay:10.37 W/m2 FEW
17:24 -7.1 °F -8.1 °F 1023.2 in Calm     92% 0.0 in WeatherDisplay:10.37 W/m2 FEW
17:29 -7.1 °F -8.1 °F 1023.2 in Calm     92% 0.0 in WeatherDisplay:10.37 W/m2 FEW
17:34 -7.1 °F -8.1 °F 1023.2 in Calm     92% 0.0 in WeatherDisplay:10.37 W/m2 FEW
17:39 -7.0 °F -8.1 °F 1023.2 in SE 3.7 mph 7.4 mph 92% 0.0 in WeatherDisplay:10.37 W/m2 FEW
17:44 -6.9 °F -8.0 °F 1022.9 in ESE 3.1 mph 5.6 mph 92% 0.0 in WeatherDisplay:10.37 W/m2 FEW
17:49 -6.9 °F -8.0 °F 1022.9 in ESE 4.3 mph 5.6 mph 92% 0.0 in WeatherDisplay:10.37 W/m2 FEW
17:54 -7.0 °F -8.1 °F 1023.2 in ESE 3.7 mph 6.4 mph 92% 0.0 in WeatherDisplay:10.37 W/m2 FEW
17:59 -7.0 °F -8.1 °F 1023.2 in Calm     92% 0.0 in WeatherDisplay:10.37 W/m2 FEW
18:04 -7.0 °F -8.1 °F 1023.2 in Calm     92% 0.0 in WeatherDisplay:10.37 W/m2 FEW
18:09 -7.0 °F -8.1 °F 1023.2 in ESE 1.1 mph 3.7 mph 92% 0.0 in WeatherDisplay:10.37 W/m2 FEW
18:14 -7.0 °F -8.1 °F 1023.2 in Calm     92% 0.0 in WeatherDisplay:10.37 W/m2 FEW
18:19 -7.0 °F -8.1 °F 1023.2 in Calm     92% 0.0 in WeatherDisplay:10.37 W/m2 FEW
18:24 -6.9 °F -8.0 °F 1023.2 in ESE 3.5 mph 7.4 mph 92% 0.0 in WeatherDisplay:10.37 W/m2 FEW
18:29 -6.9 °F -8.0 °F 1023.2 in ESE 1.3 mph 3.7 mph 92% 0.0 in WeatherDisplay:10.37 W/m2 FEW
18:34 -6.9 °F -8.0 °F 1022.9 in ESE 0.8 mph 4.8 mph 92% 0.0 in WeatherDisplay:10.37 W/m2 FEW
18:39 -6.9 °F -8.0 °F 1022.9 in ESE 1.0 mph 5.6 mph 92% 0.0 in WeatherDisplay:10.37 W/m2 FEW
18:44 -6.9 °F -7.9 °F 1022.9 in ESE 1.6 mph 3.7 mph 92% 0.0 in WeatherDisplay:10.37 W/m2 FEW
18:49 -6.8 °F -7.9 °F 1022.9 in ESE 3.4 mph 11.1 mph 92% 0.0 in WeatherDisplay:10.37 W/m2 FEW
18:54 -6.8 °F -7.9 °F 1023.2 in ESE 0.2 mph 5.6 mph 92% 0.0 in WeatherDisplay:10.37 W/m2 FEW
18:59 -6.8 °F -7.9 °F 1023.2 in ESE 1.6 mph 5.6 mph 92% 0.0 in WeatherDisplay:10.37 W/m2 FEW
19:04 -6.8 °F -7.8 °F 1023.2 in SE 1.8 mph 4.8 mph 92% 0.0 in WeatherDisplay:10.37 W/m2 FEW
19:09 -6.8 °F -7.7 °F 1023.2 in SE 1.4 mph 5.6 mph 93% 0.0 in WeatherDisplay:10.37 W/m2 FEW
19:14 -6.7 °F -7.7 °F 1023.2 in SE 1.6 mph 1.6 mph 93% 0.0 in WeatherDisplay:10.37 W/m2 FEW
19:19 -6.7 °F -7.7 °F 1023.2 in Calm     93% 0.0 in WeatherDisplay:10.37 W/m2 FEW
19:24 -6.7 °F -7.7 °F 1023.2 in Calm     93% 0.0 in WeatherDisplay:10.37 W/m2 FEW
19:29 -6.7 °F -7.7 °F 1023.2 in Calm     93% 0.0 in WeatherDisplay:10.37 W/m2 FEW
19:34 -6.7 °F -7.6 °F 1023.2 in Calm     93% 0.0 in WeatherDisplay:10.37 W/m2 FEW
19:39 -6.7 °F -7.6 °F 1023.2 in Calm     93% 0.0 in WeatherDisplay:10.37 W/m2 FEW
19:44 -6.7 °F -7.6 °F 1023.2 in Calm     93% 0.0 in WeatherDisplay:10.37 W/m2 FEW
19:49 -6.7 °F -7.6 °F 1023.2 in Calm     93% 0.0 in WeatherDisplay:10.37 W/m2 FEW
19:54 -6.6 °F -7.6 °F 1023.2 in Calm     93% 0.0 in WeatherDisplay:10.37 W/m2 FEW
19:59 -6.6 °F -7.6 °F 1023.2 in Calm     93% 0.0 in WeatherDisplay:10.37 W/m2 FEW
20:04 -6.6 °F -7.5 °F 1023.2 in Calm     93% 0.0 in WeatherDisplay:10.37 W/m2 FEW
20:09 -6.6 °F -7.5 °F 1023.2 in Calm     93% 0.0 in WeatherDisplay:10.37 W/m2 FEW
20:14 -6.5 °F -7.4 °F 1023.2 in Calm     93% 0.0 in WeatherDisplay:10.37 W/m2 FEW
20:19 -6.5 °F -7.4 °F 1023.2 in Calm     93% 0.0 in WeatherDisplay:10.37 W/m2 FEW
20:24 -6.5 °F -7.4 °F 1023.2 in Calm     93% 0.0 in WeatherDisplay:10.37 W/m2 FEW
20:29 -6.5 °F -7.4 °F 1023.2 in Calm     93% 0.0 in WeatherDisplay:10.37 W/m2 FEW
20:34 -6.4 °F -7.4 °F 1023.2 in Calm     93% 0.0 in WeatherDisplay:10.37 W/m2 FEW
20:39 -6.4 °F -7.4 °F 1023.2 in Calm     93% 0.0 in WeatherDisplay:10.37 W/m2 FEW
20:44 -6.4 °F -7.4 °F 1023.2 in Calm     93% 0.0 in WeatherDisplay:10.37 W/m2 FEW
20:49 -6.3 °F -7.3 °F 1023.2 in SE 1.8 mph 5.6 mph 93% 0.0 in WeatherDisplay:10.37 W/m2 FEW
20:54 -6.3 °F -7.3 °F 1023.2 in Calm     93% 0.0 in WeatherDisplay:10.37 W/m2 FEW
20:59 -6.3 °F -7.2 °F 1023.2 in Calm     93% 0.0 in WeatherDisplay:10.37 W/m2 FEW
21:04 -6.3 °F -7.2 °F 1023.2 in Calm     93% 0.0 in WeatherDisplay:10.37 W/m2 FEW
21:09 -6.2 °F -7.2 °F 1023.2 in Calm     93% 0.0 in WeatherDisplay:10.37 W/m2 FEW
21:14 -6.2 °F -7.2 °F 1023.2 in Calm     93% 0.0 in WeatherDisplay:10.37 W/m2 FEW
21:19 -6.2 °F -7.2 °F 1023.2 in Calm     93% 0.0 in WeatherDisplay:10.37 W/m2 FEW
21:24 -6.2 °F -7.2 °F 1023.2 in Calm     93% 0.0 in WeatherDisplay:10.37 W/m2 FEW
21:29 -6.2 °F -7.2 °F 1023.6 in Calm     93% 0.0 in WeatherDisplay:10.37 W/m2 FEW
21:34 -6.2 °F -7.1 °F 1023.2 in Calm     93% 0.0 in WeatherDisplay:10.37 W/m2 FEW
21:39 -6.2 °F -7.1 °F 1023.2 in Calm     93% 0.0 in WeatherDisplay:10.37 W/m2 FEW
21:44 -6.2 °F -7.1 °F 1023.6 in Calm     93% 0.0 in WeatherDisplay:10.37 W/m2 FEW
21:49 -6.2 °F -7.1 °F 1023.6 in Calm     93% 0.0 in WeatherDisplay:10.37 W/m2 FEW
21:54 -6.1 °F -7.1 °F 1023.6 in Calm     93% 0.0 in WeatherDisplay:10.37 W/m2 FEW
21:59 -6.1 °F -7.1 °F 1023.6 in Calm     93% 0.0 in WeatherDisplay:10.37 W/m2 FEW
22:04 -6.1 °F -7.0 °F 1023.6 in Calm     93% 0.0 in WeatherDisplay:10.37 W/m2 FEW
22:09 -6.0 °F -6.9 °F 1023.6 in Calm     93% 0.0 in WeatherDisplay:10.37 W/m2 FEW
22:14 -6.0 °F -6.9 °F 1023.6 in Calm     93% 0.0 in WeatherDisplay:10.37 W/m2 FEW
22:19 -5.9 °F -6.9 °F 1023.6 in Calm     93% 0.0 in WeatherDisplay:10.37 W/m2 FEW
22:24 -5.9 °F -6.8 °F 1023.6 in Calm     93% 0.0 in WeatherDisplay:10.37 W/m2 FEW
22:29 -5.9 °F -6.8 °F 1023.6 in Calm     93% 0.0 in WeatherDisplay:10.37 W/m2 FEW
22:34 -5.8 °F -6.8 °F 1023.6 in Calm     93% 0.0 in WeatherDisplay:10.37 W/m2 FEW
22:39 -5.8 °F -6.8 °F 1023.6 in Calm     93% 0.0 in WeatherDisplay:10.37 W/m2 FEW
22:45 -5.8 °F -6.8 °F 1023.6 in Calm     93% 0.0 in WeatherDisplay:10.37 W/m2 FEW
22:50 -5.9 °F -6.9 °F 1023.6 in Calm     93% 0.0 in WeatherDisplay:10.37 W/m2 FEW
22:55 -5.9 °F -6.9 °F 1023.6 in Calm     93% 0.0 in WeatherDisplay:10.37 W/m2 FEW
23:00 -5.9 °F -6.9 °F 1023.9 in Calm     93% 0.0 in WeatherDisplay:10.37 W/m2 FEW
23:05 -5.9 °F -6.9 °F 1023.9 in Calm     93% 0.0 in WeatherDisplay:10.37 W/m2 FEW
23:10 -5.9 °F -6.8 °F 1023.9 in Calm     93% 0.0 in WeatherDisplay:10.37 W/m2 FEW
23:16 -5.9 °F -6.8 °F 1023.9 in Calm     93% 0.0 in WeatherDisplay:10.37 W/m2 FEW
23:21 -5.8 °F -6.8 °F 1023.9 in Calm     93% 0.0 in WeatherDisplay:10.37 W/m2 FEW
23:26 -5.8 °F -6.8 °F 1023.9 in Calm     93% 0.0 in WeatherDisplay:10.37 W/m2 FEW
23:31 -5.8 °F -6.8 °F 1023.9 in Calm     93% 0.0 in WeatherDisplay:10.37 W/m2 FEW
23:36 -5.8 °F -6.8 °F 1023.9 in Calm     93% 0.0 in WeatherDisplay:10.37 W/m2 FEW
23:41 -5.8 °F -6.8 °F 1023.9 in Calm     93% 0.0 in WeatherDisplay:10.37 W/m2 FEW
23:46 -5.8 °F -6.8 °F 1023.9 in Calm     93% 0.0 in WeatherDisplay:10.37 W/m2 FEW
23:51 -5.8 °F -6.8 °F 1023.9 in SE 0.8 mph 3.7 mph 93% 0.0 in WeatherDisplay:10.37 W/m2 FEW
23:56 -5.8 °F -6.8 °F 1023.9 in Calm     93% 0.0 in WeatherDisplay:10.37 W/m2 FEW
Tuulensuunkaari, Veikkola, Suomi
Compliments of Weather Underground - 2.75 mb